Time;durP1;ratioP1;P1;durP2;ratioP2;P2;SDS_P1;SDS_P2;PMS_P1;PMS_P2;Temp;Humidity;BMP_temperature;BMP_pressure;BME280_temperature;BME280_humidity;BME280_pressure;Samples;Min_cycle;Max_cycle;Signal;HPM_P1;HPM_P2
2021/05/02 00:00:32;;;;;;;3.17;2.98;;;;;;;21.91;57.19;99291.32;1760136;79;21140;-63
2021/05/02 00:03:02;;;;;;;3.65;3.35;;;;;;;21.90;57.21;99282.37;1789711;79;21614;-64
2021/05/02 00:05:33;;;;;;;3.55;3.25;;;;;;;21.89;57.21;99275.89;1805484;79;21170;-63
2021/05/02 00:08:02;;;;;;;3.52;3.22;;;;;;;21.88;57.28;99264.23;1784115;79;21159;-63
2021/05/02 00:10:31;;;;;;;3.22;2.95;;;;;;;21.87;57.27;99265.32;1772163;78;21606;-63
2021/05/02 00:12:59;;;;;;;3.47;3.17;;;;;;;21.85;57.30;99253.94;1805482;79;21158;-62
2021/05/02 00:15:27;;;;;;;3.60;3.30;;;;;;;21.86;57.31;99254.75;1805606;79;21180;-63
2021/05/02 00:17:56;;;;;;;3.90;3.35;;;;;;;21.85;57.34;99253.13;1805639;79;21135;-63
2021/05/02 00:20:25;;;;;;;3.87;3.58;;;;;;;21.84;57.32;99255.00;1805620;79;21138;-64
2021/05/02 00:22:56;;;;;;;3.70;3.30;;;;;;;21.83;57.34;99240.38;1771712;79;21122;-63
2021/05/02 00:25:27;;;;;;;4.33;3.27;;;;;;;21.82;57.37;99238.22;1805556;79;21126;-63
2021/05/02 00:27:57;;;;;;;3.80;3.50;;;;;;;21.82;57.37;99230.65;1783014;79;21558;-63
2021/05/02 00:30:25;;;;;;;3.90;3.50;;;;;;;21.81;57.42;99231.19;1805416;79;21150;-63
2021/05/02 00:32:55;;;;;;;4.00;3.60;;;;;;;21.80;57.38;99226.84;1797968;79;21631;-62
2021/05/02 00:35:24;;;;;;;3.40;3.10;;;;;;;21.79;57.40;99226.03;1780864;79;21159;-63
2021/05/02 00:37:53;;;;;;;4.00;3.70;;;;;;;21.79;57.42;99227.92;1805611;79;21129;-63
2021/05/02 00:40:32;;;;;;;3.90;3.60;;;;;;;21.78;57.43;99232.49;1805568;79;21361;-63
2021/05/02 00:43:08;;;;;;;3.83;3.52;;;;;;;21.78;57.49;99226.28;1805336;79;21119;-63
2021/05/02 00:46:13;;;;;;;4.03;3.72;;;;;;;21.76;57.48;99227.88;1781880;79;21182;-64
2021/05/02 00:49:27;;;;;;;3.55;3.25;;;;;;;21.75;57.48;99224.07;1785044;79;21177;-62
2021/05/02 00:51:57;;;;;;;4.03;3.58;;;;;;;21.71;57.59;99214.84;1772071;79;21149;-64
2021/05/02 00:54:38;;;;;;;3.50;3.20;;;;;;;21.69;57.65;99211.58;1803296;79;21565;-63
2021/05/02 00:57:29;;;;;;;3.35;3.05;;;;;;;21.67;57.67;99211.86;1781545;79;21139;-63
2021/05/02 01:00:06;;;;;;;3.87;3.55;;;;;;;21.66;57.71;99210.75;1800863;79;21161;-63
2021/05/02 01:02:35;;;;;;;3.12;2.87;;;;;;;21.63;57.76;99209.89;1770851;79;21169;-63
2021/05/02 01:05:06;;;;;;;3.62;3.33;;;;;;;21.62;57.79;99203.68;1791846;78;21091;-63
2021/05/02 01:07:37;;;;;;;4.03;3.10;;;;;;;21.62;57.82;99201.52;1824600;78;22236;-63
2021/05/02 01:10:17;;;;;;;3.70;3.40;;;;;;;21.60;57.83;99200.42;1822739;78;21586;-63
2021/05/02 01:12:50;;;;;;;3.42;3.12;;;;;;;21.60;57.81;99203.93;1810890;78;21099;-62
2021/05/02 01:15:23;;;;;;;3.90;3.30;;;;;;;21.59;57.85;99200.96;1815133;78;21325;-63
2021/05/02 01:18:03;;;;;;;3.95;3.65;;;;;;;21.58;57.89;99202.02;1823869;78;21108;-63
2021/05/02 01:20:33;;;;;;;3.62;3.33;;;;;;;21.57;57.94;99202.27;1825628;78;22299;-63
2021/05/02 01:23:27;;;;;;;3.60;3.30;;;;;;;21.60;57.99;99201.77;1852387;77;22340;-64
2021/05/02 01:25:58;;;;;;;3.87;3.58;;;;;;;21.56;58.00;99204.16;1816414;77;21120;-64
2021/05/02 01:28:26;;;;;;;3.65;3.35;;;;;;;21.55;57.95;99203.86;1811379;78;21368;-66
2021/05/02 01:30:56;;;;;;;3.58;3.27;;;;;;;21.55;57.95;99200.35;1825446;77;21185;-63
2021/05/02 01:33:24;;;;;;;3.80;3.50;;;;;;;21.54;58.01;99194.14;1825535;78;21025;-63
2021/05/02 01:35:51;;;;;;;3.80;3.50;;;;;;;21.54;58.02;99191.44;1825506;77;21165;-62
2021/05/02 01:38:22;;;;;;;3.52;3.20;;;;;;;21.54;58.00;99194.14;1825253;78;21122;-63
2021/05/02 01:40:53;;;;;;;4.22;3.47;;;;;;;21.52;58.02;99193.58;1774246;78;22412;-62
2021/05/02 01:43:21;;;;;;;3.45;3.15;;;;;;;21.52;58.03;99192.77;1825424;78;21184;-63
2021/05/02 01:45:49;;;;;;;3.72;3.42;;;;;;;21.51;58.02;99189.77;1824520;77;21099;-63
2021/05/02 01:48:17;;;;;;;3.30;3.00;;;;;;;21.51;58.05;99196.53;1803877;78;21120;-64
2021/05/02 01:50:51;;;;;;;3.60;3.30;;;;;;;21.51;58.06;99196.53;1803720;78;21131;-63
2021/05/02 01:53:19;;;;;;;3.60;3.30;;;;;;;21.50;58.07;99197.07;1803258;77;21645;-63
2021/05/02 01:55:47;;;;;;;4.28;3.45;;;;;;;21.51;58.06;99188.42;1825474;78;21171;-63
2021/05/02 01:58:17;;;;;;;3.55;3.25;;;;;;;21.50;58.05;99185.42;1823454;77;21187;-62
2021/05/02 02:01:06;;;;;;;3.87;3.58;;;;;;;21.48;58.09;99178.11;1804984;78;21132;-62
2021/05/02 02:03:34;;;;;;;4.15;3.75;;;;;;;21.48;58.08;99180.80;1802266;77;21186;-63
2021/05/02 02:06:01;;;;;;;4.00;3.70;;;;;;;21.46;58.19;99180.25;1825370;77;21354;-64
2021/05/02 02:08:29;;;;;;;3.40;3.10;;;;;;;21.44;58.16;99167.52;1802171;78;21131;-63
2021/05/02 02:10:57;;;;;;;3.72;3.42;;;;;;;21.44;58.16;99166.17;1825566;77;21184;-63
2021/05/02 02:13:26;;;;;;;3.37;3.08;;;;;;;21.43;58.17;99163.17;1825221;77;21192;-62
2021/05/02 02:15:55;;;;;;;3.42;3.12;;;;;;;21.42;58.18;99165.04;1814945;78;21151;-62
2021/05/02 02:18:23;;;;;;;3.65;3.35;;;;;;;21.42;58.17;99169.09;1792501;78;21423;-64
2021/05/02 02:20:53;;;;;;;3.50;3.20;;;;;;;21.40;58.23;99170.72;1824035;78;21125;-62
2021/05/02 02:23:24;;;;;;;3.87;3.58;;;;;;;21.39;58.24;99169.08;1825238;78;21123;-64
2021/05/02 02:25:53;;;;;;;3.12;2.90;;;;;;;21.39;58.27;99167.72;1801793;77;21160;-62
2021/05/02 02:28:23;;;;;;;3.65;3.35;;;;;;;21.39;58.30;99170.97;1825466;78;21141;-64
2021/05/02 02:30:57;;;;;;;3.65;3.35;;;;;;;21.37;58.29;99165.81;1825427;77;21398;-63
2021/05/02 02:33:26;;;;;;;3.92;3.00;;;;;;;21.37;58.35;99165.00;1807211;77;21658;-64
2021/05/02 02:35:54;;;;;;;3.40;3.10;;;;;;;21.36;58.36;99162.84;1819886;78;21136;-64
2021/05/02 02:38:24;;;;;;;3.83;3.50;;;;;;;21.34;58.36;99156.88;1809495;78;21151;-63
2021/05/02 02:40:55;;;;;;;3.62;3.20;;;;;;;21.35;58.42;99153.63;1794898;77;21143;-63
2021/05/02 02:43:33;;;;;;;3.02;2.80;;;;;;;21.34;58.38;99157.39;1810933;78;22267;-64
2021/05/02 02:46:10;;;;;;;3.05;2.85;;;;;;;21.32;58.44;99150.88;1791840;77;21135;-62
2021/05/02 02:48:36;;;;;;;3.50;3.20;;;;;;;21.32;58.48;99146.83;1807344;78;21597;-64
2021/05/02 02:51:04;;;;;;;3.17;2.90;;;;;;;21.31;58.45;99141.16;1824614;77;21145;-64
2021/05/02 02:53:33;;;;;;;3.90;3.50;;;;;;;21.31;58.49;99135.77;1824683;78;21164;-63
2021/05/02 02:56:07;;;;;;;3.33;3.02;;;;;;;21.30;58.52;99134.11;1824887;77;21193;-64
2021/05/02 02:59:05;;;;;;;3.35;3.08;;;;;;;21.30;58.51;99139.52;1818804;78;21583;-64
2021/05/02 03:01:32;;;;;;;3.17;2.98;;;;;;;21.29;58.57;99133.84;1814943;77;21121;-64
2021/05/02 03:04:02;;;;;;;3.62;3.33;;;;;;;21.27;58.60;99135.98;1784752;80;21163;-64
2021/05/02 03:09:26;;;;;;;3.60;3.30;;;;;;;21.29;58.69;99141.95;1888691;74;22591;-63
2021/05/02 03:11:54;;;;;;;3.27;2.98;;;;;;;21.23;58.70;99149.72;1859763;76;21152;-63
2021/05/02 03:14:21;;;;;;;3.47;3.17;;;;;;;21.23;58.73;99155.13;1859679;77;21222;-65
2021/05/02 03:16:48;;;;;;;3.90;3.60;;;;;;;21.24;58.79;99158.63;1859798;77;21171;-64
2021/05/02 03:19:27;;;;;;;4.05;3.65;;;;;;;21.24;58.79;99160.80;1836274;77;21160;-63
2021/05/02 03:22:09;;;;;;;3.65;3.35;;;;;;;21.25;58.80;99157.55;1859828;76;21096;-64
2021/05/02 03:24:42;;;;;;;4.05;3.58;;;;;;;21.23;58.80;99148.37;1859982;77;21108;-63
2021/05/02 03:27:19;;;;;;;3.42;3.12;;;;;;;21.23;58.80;99147.02;1859938;75;21316;-63
2021/05/02 03:29:47;;;;;;;3.40;3.10;;;;;;;21.21;58.83;99143.76;1861713;76;21123;-62
2021/05/02 03:32:17;;;;;;;3.35;3.10;;;;;;;21.21;58.85;99144.56;1859783;77;21077;-63
2021/05/02 03:34:45;;;;;;;3.58;3.25;;;;;;;21.21;58.90;99145.11;1859807;77;21133;-62
2021/05/02 03:37:18;;;;;;;3.37;3.08;;;;;;;21.21;58.90;99145.11;1859781;76;21152;-63
2021/05/02 03:39:50;;;;;;;3.90;3.60;;;;;;;21.21;59.00;99145.91;1859815;75;21361;-64
2021/05/02 03:42:18;;;;;;;4.03;3.72;;;;;;;21.21;58.96;99143.76;1861973;75;21107;-63
2021/05/02 03:44:45;;;;;;;3.75;3.45;;;;;;;21.21;59.03;99142.41;1859798;77;21129;-63
2021/05/02 03:47:18;;;;;;;3.30;3.00;;;;;;;21.22;59.05;99153.48;1859712;75;21111;-63
2021/05/02 03:49:46;;;;;;;3.72;3.42;;;;;;;21.21;58.99;99151.86;1859784;75;21133;-63
2021/05/02 03:52:16;;;;;;;3.60;3.30;;;;;;;21.21;59.07;99158.61;1859809;77;22178;-63
2021/05/02 03:54:45;;;;;;;3.60;3.30;;;;;;;21.21;59.07;99168.06;1862007;75;21112;-63
2021/05/02 03:57:12;;;;;;;3.27;3.00;;;;;;;21.22;59.10;99171.03;1859613;76;21156;-63
2021/05/02 03:59:42;;;;;;;3.42;3.15;;;;;;;21.22;59.10;99166.98;1859593;76;21600;-64
2021/05/02 04:02:09;;;;;;;3.87;3.58;;;;;;;21.23;59.07;99163.73;1873471;75;21124;-63
2021/05/02 04:04:37;;;;;;;3.37;3.08;;;;;;;21.23;59.13;99154.28;1855836;76;21335;-63
2021/05/02 04:07:07;;;;;;;2.95;2.75;;;;;;;21.22;59.14;99153.48;1843072;76;21111;-63
2021/05/02 04:09:36;;;;;;;3.75;3.45;;;;;;;21.23;59.12;99147.02;1848663;76;21147;-63
2021/05/02 04:12:08;;;;;;;3.80;3.50;;;;;;;21.23;59.10;99138.92;1792988;79;21168;-64
2021/05/02 04:14:36;;;;;;;3.60;3.30;;;;;;;21.24;59.12;99139.73;1791863;79;21187;-63
2021/05/02 04:17:09;;;;;;;3.47;3.17;;;;;;;21.24;59.15;99137.83;1814217;77;22284;-63
2021/05/02 04:19:48;;;;;;;3.92;3.62;;;;;;;21.24;59.17;99133.78;1820949;77;21154;-62
2021/05/02 04:22:17;;;;;;;3.85;3.20;;;;;;;21.25;59.13;99134.08;1793897;77;21143;-64
2021/05/02 04:24:45;;;;;;;3.33;3.02;;;;;;;21.25;59.19;99123.78;1761869;79;21154;-63
2021/05/02 04:27:13;;;;;;;3.25;3.05;;;;;;;21.26;59.18;99134.89;1800286;77;21443;-64
2021/05/02 04:29:42;;;;;;;3.10;2.90;;;;;;;21.26;59.16;99135.69;1769306;78;21370;-62
2021/05/02 04:32:11;;;;;;;3.37;3.12;;;;;;;21.26;59.21;99130.29;1808273;77;21155;-64
2021/05/02 04:34:39;;;;;;;3.45;3.15;;;;;;;21.27;59.18;99129.78;1761881;80;21151;-63
2021/05/02 04:37:06;;;;;;;3.75;3.45;;;;;;;21.28;59.17;99129.50;1807424;77;21183;-63
2021/05/02 04:39:34;;;;;;;3.35;3.10;;;;;;;21.29;59.16;99131.15;1795947;77;21103;-64
2021/05/02 04:42:02;;;;;;;3.47;3.17;;;;;;;21.29;59.18;99132.50;1817501;77;22377;-63
2021/05/02 04:44:29;;;;;;;3.35;3.05;;;;;;;21.31;59.19;99118.74;1794615;79;21179;-64
2021/05/02 04:46:57;;;;;;;3.35;3.05;;;;;;;21.30;59.21;99113.85;1788807;79;21316;-63
2021/05/02 04:49:25;;;;;;;3.30;3.08;;;;;;;21.29;59.17;99110.08;1799946;78;21154;-63
2021/05/02 04:51:54;;;;;;;3.22;3.02;;;;;;;21.32;59.22;99125.22;1794125;80;21541;-63
2021/05/02 04:54:21;;;;;;;3.33;3.02;;;;;;;21.33;59.22;99126.06;1801510;78;21339;-64
2021/05/02 04:56:48;;;;;;;3.55;3.25;;;;;;;21.33;59.19;99133.63;1794059;79;21388;-63
2021/05/02 04:59:16;;;;;;;3.45;3.15;;;;;;;21.34;59.18;99146.08;1794031;79;21133;-63
2021/05/02 05:01:44;;;;;;;3.37;3.08;;;;;;;21.36;59.18;99144.45;1812069;78;21159;-64
2021/05/02 05:04:13;;;;;;;2.85;2.65;;;;;;;21.37;59.13;99146.09;1794857;80;21141;-63
2021/05/02 05:06:43;;;;;;;3.37;3.08;;;;;;;21.38;59.16;99135.55;1794971;79;22260;-64
2021/05/02 05:09:12;;;;;;;3.50;3.00;;;;;;;21.38;59.11;99126.93;1796653;79;21189;-63
2021/05/02 05:11:39;;;;;;;3.00;2.80;;;;;;;21.38;59.15;99130.98;1797982;79;21188;-65
2021/05/02 05:14:07;;;;;;;3.75;2.98;;;;;;;21.40;59.16;99134.76;1797881;79;21172;-64
2021/05/02 05:16:37;;;;;;;3.70;3.40;;;;;;;21.41;59.12;99129.11;1797794;79;21582;-64
2021/05/02 05:19:05;;;;;;;3.15;2.95;;;;;;;21.43;59.11;99128.05;1797907;79;21342;-64
2021/05/02 05:21:33;;;;;;;3.70;3.40;;;;;;;21.43;59.08;99124.80;1797999;79;21601;-64
2021/05/02 05:24:01;;;;;;;3.60;3.30;;;;;;;21.45;59.06;99127.29;1797963;79;21153;-63
2021/05/02 05:26:29;;;;;;;3.30;3.05;;;;;;;21.46;59.06;99132.95;1797926;79;21609;-64
2021/05/02 05:28:56;;;;;;;3.58;3.27;;;;;;;21.47;59.03;99139.47;1798018;79;22227;-64
2021/05/02 05:31:24;;;;;;;3.12;2.92;;;;;;;21.48;59.01;99133.52;1797931;79;22139;-65
2021/05/02 05:33:52;;;;;;;3.40;3.10;;;;;;;21.48;58.98;99134.36;1797903;79;21154;-64
2021/05/02 05:36:21;;;;;;;3.15;2.95;;;;;;;21.50;59.01;99132.73;1798007;79;21149;-64
2021/05/02 05:38:50;;;;;;;3.55;3.25;;;;;;;21.50;58.99;99126.81;1798058;79;21161;-63
2021/05/02 05:41:17;;;;;;;3.30;3.00;;;;;;;21.51;58.99;99124.37;1797971;79;21145;-63
2021/05/02 05:43:45;;;;;;;2.90;2.70;;;;;;;21.53;59.01;99122.77;1798086;79;21380;-64
2021/05/02 05:46:13;;;;;;;2.85;2.58;;;;;;;21.55;59.00;99115.22;1797844;79;21141;-63
2021/05/02 05:48:42;;;;;;;3.37;3.08;;;;;;;21.57;59.00;99115.23;1797948;79;21403;-63
2021/05/02 05:51:09;;;;;;;3.62;3.33;;;;;;;21.58;59.00;99124.19;1798003;79;21779;-64
2021/05/02 05:53:37;;;;;;;3.40;3.10;;;;;;;21.59;58.97;99127.99;1797971;79;21089;-63
2021/05/02 05:56:05;;;;;;;3.25;2.95;;;;;;;21.62;58.92;99129.36;1797998;79;21376;-64
2021/05/02 05:58:32;;;;;;;3.60;3.30;;;;;;;21.65;58.93;99118.56;1792598;79;21178;-64
2021/05/02 06:01:00;;;;;;;4.25;3.85;;;;;;;21.66;58.92;99114.80;1813789;77;21591;-63
2021/05/02 06:03:27;;;;;;;3.50;2.90;;;;;;;21.68;58.96;99110.76;1830552;77;21146;-63
2021/05/02 06:05:55;;;;;;;3.58;3.27;;;;;;;21.70;59.00;99103.20;1830672;78;21568;-64
2021/05/02 06:08:22;;;;;;;3.33;3.02;;;;;;;21.71;58.97;99096.74;1805536;78;21445;-64
2021/05/02 06:10:51;;;;;;;3.40;3.10;;;;;;;21.73;58.98;99099.16;1767673;78;21145;-63
2021/05/02 06:13:19;;;;;;;3.77;3.08;;;;;;;21.75;58.95;99092.45;1779731;80;21173;-63
2021/05/02 06:15:46;;;;;;;3.00;2.80;;;;;;;21.76;58.96;99100.02;1795527;78;21111;-63
2021/05/02 06:18:14;;;;;;;3.27;2.98;;;;;;;21.79;59.01;99104.92;1769691;79;21158;-63
2021/05/02 06:20:41;;;;;;;3.33;3.02;;;;;;;21.80;59.03;99099.23;1818909;78;21385;-64
2021/05/02 06:23:09;;;;;;;3.10;2.80;;;;;;;21.82;59.03;99098.98;1821149;78;21154;-65
2021/05/02 06:25:36;;;;;;;2.70;2.50;;;;;;;21.85;59.03;99093.61;1821260;78;21110;-64
2021/05/02 06:28:04;;;;;;;2.92;2.72;;;;;;;21.87;58.96;99104.98;1822696;78;21149;-64
2021/05/02 06:30:32;;;;;;;3.55;2.98;;;;;;;21.88;58.96;99104.70;1823048;78;21133;-63
2021/05/02 06:33:01;;;;;;;3.15;2.92;;;;;;;21.90;58.98;99104.45;1775375;79;22268;-64
2021/05/02 06:35:29;;;;;;;3.27;2.60;;;;;;;21.91;58.98;99104.74;1799843;78;21187;-65
2021/05/02 06:37:57;;;;;;;3.40;3.10;;;;;;;21.92;58.86;99099.59;1786750;78;21159;-64
2021/05/02 06:40:24;;;;;;;3.47;3.17;;;;;;;21.93;58.94;99094.48;1783283;78;21146;-64
2021/05/02 06:42:51;;;;;;;2.95;2.75;;;;;;;21.95;58.88;99085.03;1789306;78;21183;-64
2021/05/02 06:45:19;;;;;;;2.90;2.60;;;;;;;21.96;58.88;99088.54;1802191;78;21357;-63
2021/05/02 06:47:47;;;;;;;3.00;2.50;;;;;;;21.97;58.89;99095.05;1817543;78;21112;-64
2021/05/02 06:50:14;;;;;;;3.42;3.12;;;;;;;21.99;58.87;99088.03;1781015;78;21160;-63
2021/05/02 06:52:42;;;;;;;3.95;3.55;;;;;;;22.00;58.86;99092.38;1801555;78;21144;-64
2021/05/02 06:55:10;;;;;;;3.37;3.08;;;;;;;22.02;58.85;99094.80;1784213;78;21166;-63
2021/05/02 06:57:38;;;;;;;3.40;3.10;;;;;;;22.04;58.88;99108.88;1790298;78;21426;-63
2021/05/02 07:00:07;;;;;;;3.33;3.02;;;;;;;22.05;58.76;99109.17;1774479;78;21163;-63
2021/05/02 07:02:34;;;;;;;3.55;3.25;;;;;;;22.07;58.71;99113.23;1795919;78;21599;-62
2021/05/02 07:05:01;;;;;;;3.33;3.02;;;;;;;22.09;58.70;99119.20;1796089;78;21710;-64
2021/05/02 07:07:29;;;;;;;2.75;2.55;;;;;;;22.11;58.73;99126.52;1801805;79;21172;-63
2021/05/02 07:09:57;;;;;;;2.72;2.52;;;;;;;22.12;58.74;99146.29;1797093;79;21374;-64
2021/05/02 07:12:26;;;;;;;3.22;2.98;;;;;;;22.14;58.82;99140.09;1800028;78;21131;-64
2021/05/02 07:14:53;;;;;;;3.12;2.92;;;;;;;22.13;58.91;99128.42;1776902;78;21183;-64
2021/05/02 07:17:21;;;;;;;3.02;2.77;;;;;;;22.13;58.90;99110.84;1820379;78;21161;-63
2021/05/02 07:19:50;;;;;;;3.15;2.85;;;;;;;22.13;58.82;99113.55;1825046;78;21152;-64
2021/05/02 07:22:19;;;;;;;3.35;3.05;;;;;;;22.14;58.90;99124.66;1793382;78;21164;-63
2021/05/02 07:24:50;;;;;;;3.17;2.87;;;;;;;22.14;58.79;99120.61;1795607;78;21163;-63
2021/05/02 07:27:17;;;;;;;3.77;3.47;;;;;;;22.15;58.81;99124.12;1793369;78;21107;-64
2021/05/02 07:29:44;;;;;;;3.15;2.95;;;;;;;22.14;58.83;99139.54;1795634;79;21581;-64
2021/05/02 07:32:12;;;;;;;3.05;2.85;;;;;;;22.14;58.80;99144.95;1786377;78;21163;-64
2021/05/02 07:34:41;;;;;;;3.15;2.92;;;;;;;22.15;58.73;99140.34;1824860;78;21347;-62
2021/05/02 07:37:10;;;;;;;3.55;3.25;;;;;;;22.14;58.69;99126.02;1824746;78;21140;-63
2021/05/02 07:39:41;;;;;;;3.30;3.00;;;;;;;22.15;58.67;99116.81;1801450;78;21557;-63
2021/05/02 07:42:09;;;;;;;3.83;3.50;;;;;;;22.14;58.66;99115.20;1771487;78;21164;-64
2021/05/02 07:44:37;;;;;;;3.08;2.87;;;;;;;22.15;58.69;99110.05;1823531;78;21546;-63
2021/05/02 07:47:04;;;;;;;2.98;2.77;;;;;;;22.15;58.59;99099.23;1821267;78;22582;-63
2021/05/02 07:49:33;;;;;;;3.22;2.95;;;;;;;22.16;58.53;99098.16;1821112;78;21140;-63
2021/05/02 07:52:00;;;;;;;3.40;2.95;;;;;;;22.19;58.42;99101.72;1821183;78;21615;-64
2021/05/02 07:54:29;;;;;;;5.12;3.47;;;;;;;22.21;58.63;99101.43;1821270;78;21643;-64
2021/05/02 07:56:56;;;;;;;3.47;3.17;;;;;;;22.22;58.56;99095.50;1821460;78;21131;-63
2021/05/02 07:59:24;;;;;;;3.22;2.92;;;;;;;22.23;58.51;99103.88;1821339;78;21348;-63
2021/05/02 08:01:52;;;;;;;3.17;2.55;;;;;;;22.24;58.45;99108.23;1792513;78;21635;-63
2021/05/02 08:04:19;;;;;;;3.42;3.12;;;;;;;22.25;58.46;99105.82;1821349;78;21151;-63
2021/05/02 08:06:47;;;;;;;4.50;3.42;;;;;;;22.26;58.46;99103.41;1821331;78;21108;-63
2021/05/02 08:09:15;;;;;;;3.17;2.87;;;;;;;22.28;58.44;99102.61;1821326;78;21111;-65
2021/05/02 08:11:43;;;;;;;3.40;3.10;;;;;;;22.28;58.46;99095.84;1821341;78;21381;-62
2021/05/02 08:14:10;;;;;;;3.27;2.98;;;;;;;22.30;58.44;99097.75;1821358;78;21170;-64
2021/05/02 08:16:40;;;;;;;3.75;3.10;;;;;;;22.31;58.40;99091.24;1821375;78;21148;-62
2021/05/02 08:19:08;;;;;;;3.22;3.00;;;;;;;22.32;58.39;99090.19;1821321;78;21179;-63
2021/05/02 08:21:36;;;;;;;4.67;3.40;;;;;;;22.34;58.33;99085.33;1821430;78;21131;-62
2021/05/02 08:24:06;;;;;;;3.55;2.87;;;;;;;22.34;58.29;99086.67;1821369;78;21277;-68
2021/05/02 08:26:33;;;;;;;3.12;2.92;;;;;;;22.35;58.22;99084.27;1821416;78;21228;-68
2021/05/02 08:29:02;;;;;;;3.67;3.33;;;;;;;22.36;58.13;99087.23;1821252;78;21120;-69
2021/05/02 08:31:29;;;;;;;3.27;2.98;;;;;;;22.36;58.09;99083.97;1821343;78;21139;-69
2021/05/02 08:33:56;;;;;;;3.90;3.50;;;;;;;22.37;58.03;99091.58;1821429;78;21143;-68
2021/05/02 08:36:24;;;;;;;3.90;3.42;;;;;;;22.38;58.14;99070.19;1821285;78;21378;-69
2021/05/02 08:38:53;;;;;;;3.83;3.52;;;;;;;22.41;58.24;99071.55;1821355;78;21143;-68
2021/05/02 08:41:21;;;;;;;3.80;3.50;;;;;;;22.42;58.19;99079.41;1821320;78;21112;-69
2021/05/02 08:43:54;;;;;;;3.35;3.05;;;;;;;22.43;58.18;99068.07;1821337;78;21163;-68
2021/05/02 08:46:21;;;;;;;3.35;3.05;;;;;;;22.44;58.11;99066.98;1821354;78;21124;-70
2021/05/02 08:48:49;;;;;;;3.92;3.45;;;;;;;22.44;58.09;99073.20;1821253;78;21350;-69
2021/05/02 08:51:16;;;;;;;3.70;3.40;;;;;;;22.45;58.02;99072.13;1821201;78;21124;-68
2021/05/02 08:53:44;;;;;;;3.83;3.40;;;;;;;22.47;57.99;99069.17;1821352;78;21607;-68
2021/05/02 08:56:11;;;;;;;4.00;3.60;;;;;;;22.47;57.99;99065.92;1821321;78;21124;-67
2021/05/02 08:58:39;;;;;;;3.95;3.55;;;;;;;22.47;57.97;99063.21;1821331;78;21415;-69
2021/05/02 09:01:06;;;;;;;3.62;3.33;;;;;;;22.48;57.92;99050.48;1799889;78;22113;-69
2021/05/02 09:03:46;;;;;;;3.80;3.50;;;;;;;22.48;58.02;99046.42;1795984;79;21141;-69
2021/05/02 09:06:21;;;;;;;4.35;3.95;;;;;;;22.48;57.93;99048.59;1777881;79;21607;-69
2021/05/02 09:09:07;;;;;;;3.45;3.15;;;;;;;22.52;57.96;99039.41;1836785;77;22896;-68
2021/05/02 09:11:43;;;;;;;4.12;3.77;;;;;;;22.47;57.88;99041.56;1804515;79;21148;-68
2021/05/02 09:14:24;;;;;;;5.62;4.05;;;;;;;22.47;57.89;99033.44;1811379;79;21363;-68
2021/05/02 09:16:56;;;;;;;3.85;3.52;;;;;;;22.47;57.76;99035.34;1811329;79;21038;-68
2021/05/02 09:19:29;;;;;;;4.35;3.77;;;;;;;22.46;57.82;99033.16;1811149;79;21196;-68
2021/05/02 09:22:12;;;;;;;4.72;4.33;;;;;;;22.47;57.90;99028.03;1777480;79;21150;-69
2021/05/02 09:24:39;;;;;;;4.08;3.67;;;;;;;22.47;57.83;99016.40;1783523;79;21545;-68
2021/05/02 09:27:12;;;;;;;4.10;3.80;;;;;;;22.46;57.96;99022.88;1796123;78;21238;-68
2021/05/02 09:29:43;;;;;;;4.10;3.67;;;;;;;22.46;58.03;99029.09;1806488;78;20961;-69
2021/05/02 09:32:13;;;;;;;4.50;4.10;;;;;;;22.47;58.01;99024.52;1817688;78;21155;-69
2021/05/02 09:34:52;;;;;;;4.20;3.80;;;;;;;22.47;58.01;99021.27;1806794;78;21588;-69
2021/05/02 09:37:21;;;;;;;3.75;3.45;;;;;;;22.48;58.01;99027.48;1786172;78;21176;-70
2021/05/02 09:40:00;;;;;;;3.98;3.67;;;;;;;22.46;58.02;99020.97;1786049;79;21574;-69
2021/05/02 09:42:37;;;;;;;4.15;3.72;;;;;;;22.48;58.02;99016.66;1813169;78;21175;-69
2021/05/02 09:45:08;;;;;;;4.20;3.80;;;;;;;22.47;58.03;99021.81;1817437;79;21130;-70
2021/05/02 09:47:41;;;;;;;4.55;4.15;;;;;;;22.46;58.02;99019.63;1817806;78;21667;-69
2021/05/02 09:50:19;;;;;;;4.10;3.80;;;;;;;22.44;58.04;99010.95;1804468;78;21127;-70
2021/05/02 09:52:57;;;;;;;4.33;3.92;;;;;;;22.47;58.01;99017.20;1811357;78;21185;-69
2021/05/02 09:55:45;;;;;;;4.42;4.03;;;;;;;22.47;58.02;99009.63;1817619;78;21106;-69
2021/05/02 09:58:21;;;;;;;3.87;3.55;;;;;;;22.47;58.14;99005.58;1816682;78;21094;-68
2021/05/02 10:00:55;;;;;;;4.42;4.03;;;;;;;22.46;58.07;99007.99;1797999;79;21674;-69
2021/05/02 10:03:25;;;;;;;4.70;4.30;;;;;;;22.46;58.00;98999.33;1794705;79;21165;-68
2021/05/02 10:06:01;;;;;;;4.10;3.77;;;;;;;22.46;58.00;99002.03;1804499;79;21136;-68
2021/05/02 10:08:32;;;;;;;5.90;5.03;;;;;;;22.47;57.96;98998.26;1794585;78;21179;-68
2021/05/02 10:11:04;;;;;;;4.45;4.03;;;;;;;22.45;57.90;98986.89;1824675;78;21184;-67
2021/05/02 10:13:33;;;;;;;;;;;;;;;22.47;57.96;98991.49;1827285;78;21541;-68
2021/05/02 10:16:03;;;;;;;4.22;3.90;;;;;;;22.47;58.08;98994.75;1824706;78;20522;-67
2021/05/02 10:18:30;;;;;;;4.62;4.22;;;;;;;22.41;58.18;99009.31;1827790;78;21392;-69
2021/05/02 10:20:58;;;;;;;4.83;4.42;;;;;;;22.41;58.25;99012.85;1829173;78;21855;-68
2021/05/02 10:23:26;;;;;;;4.03;3.62;;;;;;;22.44;58.20;99008.25;1829155;77;21155;-68
2021/05/02 10:25:56;;;;;;;5.30;4.30;;;;;;;22.44;58.15;99016.36;1829253;77;21182;-68
2021/05/02 10:28:30;;;;;;;4.30;3.90;;;;;;;22.45;58.28;99022.07;1829163;78;21199;-68
2021/05/02 10:31:00;;;;;;;4.47;4.08;;;;;;;22.47;58.18;99022.62;1829253;77;22362;-69
2021/05/02 10:33:42;;;;;;;4.35;3.95;;;;;;;22.47;58.10;99023.16;1828832;77;21214;-68
2021/05/02 10:36:22;;;;;;;4.80;4.37;;;;;;;22.48;58.21;99027.48;1829175;78;21095;-68
2021/05/02 10:39:01;;;;;;;4.85;4.45;;;;;;;22.48;58.25;99034.25;1829212;78;21100;-68
2021/05/02 10:41:38;;;;;;;5.03;4.62;;;;;;;22.48;58.33;99049.94;1806457;78;21637;-68
2021/05/02 10:44:16;;;;;;;4.47;4.08;;;;;;;22.49;58.30;99053.48;1828935;78;21182;-68
2021/05/02 10:46:53;;;;;;;5.15;4.67;;;;;;;22.50;58.27;99041.56;1829247;78;21575;-68
2021/05/02 10:49:27;;;;;;;4.87;4.25;;;;;;;22.51;58.25;99040.50;1829177;78;21700;-68
2021/05/02 10:51:57;;;;;;;4.78;4.37;;;;;;;22.52;58.16;99033.48;1829415;78;21127;-68
2021/05/02 10:54:42;;;;;;;4.85;4.42;;;;;;;22.53;58.18;99027.52;1826819;78;21583;-68
2021/05/02 10:57:35;;;;;;;4.75;4.35;;;;;;;22.55;58.04;99022.10;1793708;79;21367;-68
2021/05/02 11:00:09;;;;;;;4.75;4.03;;;;;;;22.58;58.04;99022.13;1804316;78;21143;-68
2021/05/02 11:02:46;;;;;;;4.87;4.10;;;;;;;22.60;58.11;99011.02;1811497;77;21182;-69
2021/05/02 11:05:15;;;;;;;4.40;4.00;;;;;;;22.62;58.09;99008.86;1802766;79;21986;-68
2021/05/02 11:07:44;;;;;;;4.90;4.50;;;;;;;22.64;58.05;98997.22;1790048;79;21161;-68
2021/05/02 11:10:17;;;;;;;4.60;4.20;;;;;;;22.66;58.01;98988.33;1811915;79;21325;-68
2021/05/02 11:12:48;;;;;;;5.03;4.53;;;;;;;22.68;58.06;98985.62;1791193;79;21137;-68
2021/05/02 11:15:31;;;;;;;4.72;4.33;;;;;;;22.72;58.05;98989.97;1816920;79;21132;-68
2021/05/02 11:18:00;;;;;;;5.33;4.45;;;;;;;22.75;58.09;98988.06;1816720;79;21198;-68
2021/05/02 11:20:52;;;;;;;5.22;4.72;;;;;;;22.76;58.13;98984.28;1816912;78;21165;-68
2021/05/02 11:23:48;;;;;;;4.28;3.87;;;;;;;22.78;58.17;98992.95;1816711;79;21433;-68
2021/05/02 11:26:37;;;;;;;4.75;4.30;;;;;;;22.78;58.28;98999.72;1796571;79;21128;-68
2021/05/02 11:31:42;;;;;;;4.92;4.40;;;;;;;22.78;58.25;98998.38;1814505;77;22796;-69
2021/05/02 11:34:10;;;;;;;4.53;4.12;;;;;;;22.74;58.27;98993.22;1803158;79;21138;-68
2021/05/02 11:36:39;;;;;;;4.80;4.37;;;;;;;22.73;58.25;98987.52;1804990;78;21385;-69
2021/05/02 11:39:07;;;;;;;5.35;4.85;;;;;;;22.73;58.15;98987.52;1804115;79;21168;-68
2021/05/02 11:42:03;;;;;;;5.30;4.78;;;;;;;22.72;58.10;98988.61;1815201;79;21123;-69
2021/05/02 11:44:33;;;;;;;4.95;4.45;;;;;;;22.71;58.18;98982.36;1806292;79;21130;-68
2021/05/02 11:47:11;;;;;;;5.08;4.60;;;;;;;22.69;58.14;98970.98;1810823;78;21119;-68
2021/05/02 11:49:40;;;;;;;5.00;4.60;;;;;;;22.68;58.07;98975.34;1817591;78;21182;-69
2021/05/02 11:52:08;;;;;;;5.08;4.47;;;;;;;22.68;58.02;98972.63;1817625;78;21593;-66
2021/05/02 11:54:45;;;;;;;5.85;5.35;;;;;;;22.66;57.96;98951.23;1813226;78;21080;-68
2021/05/02 11:57:13;;;;;;;4.90;4.40;;;;;;;22.66;57.95;98961.26;1802118;78;21081;-68